Time;durP1;ratioP1;P1;durP2;ratioP2;P2;SDS_P1;SDS_P2;PMS_P1;PMS_P2;Temp;Humidity;BMP_temperature;BMP_pressure;BME280_temperature;BME280_humidity;BME280_pressure;Samples;Min_cycle;Max_cycle;Signal;HPM_P1;HPM_P2
2021/05/31 00:00:24;;;;;;;;;5.50;5.25;;;;;18.65;37.42;101573.81;5083023;27;46152;-59
2021/05/31 00:02:49;;;;;;;;;8.75;8.25;;;;;18.63;37.94;101578.31;5083546;27;45421;-59
2021/05/31 00:05:17;;;;;;;;;9.00;6.00;;;;;18.58;37.93;101574.94;5083454;27;45239;-60
2021/05/31 00:07:43;;;;;;;;;7.25;6.00;;;;;18.55;37.86;101574.16;5083372;27;45401;-59
2021/05/31 00:10:09;;;;;;;;;7.25;6.75;;;;;18.52;37.93;101567.16;5082882;27;46108;-59
2021/05/31 00:12:35;;;;;;;;;8.50;7.50;;;;;18.49;37.99;101570.78;5083087;27;45434;-59
2021/05/31 00:15:01;;;;;;;;;7.25;6.50;;;;;18.45;38.29;101569.16;5081702;27;45420;-59
2021/05/31 00:17:26;;;;;;;;;6.75;5.75;;;;;18.43;38.33;101570.16;5083365;27;45287;-59
2021/05/31 00:19:54;;;;;;;;;6.00;6.00;;;;;18.37;38.09;101557.91;5082768;27;46285;-59
2021/05/31 00:22:20;;;;;;;;;5.25;5.25;;;;;18.35;38.57;101559.75;5083268;27;45512;-60
2021/05/31 00:24:47;;;;;;;;;9.00;8.75;;;;;18.30;38.34;101562.56;5098819;27;45254;-60
2021/05/31 00:27:14;;;;;;;;;8.25;8.25;;;;;18.23;38.53;101557.50;5082897;27;45333;-59
2021/05/31 00:29:39;;;;;;;;;8.50;4.75;;;;;18.25;38.57;101563.63;5082527;27;46201;-59
2021/05/31 00:32:05;;;;;;;;;8.50;7.50;;;;;18.23;38.92;101560.19;5083020;27;45451;-60
2021/05/31 00:34:30;;;;;;;;;8.50;6.75;;;;;18.21;38.63;101564.66;5082915;27;45352;-59
2021/05/31 00:36:55;;;;;;;;;9.75;7.00;;;;;18.17;38.86;101555.91;5083155;27;45314;-59
2021/05/31 00:39:22;;;;;;;;;7.00;6.00;;;;;18.11;39.01;101551.69;5082893;27;45256;-59
2021/05/31 00:41:49;;;;;;;;;6.00;6.00;;;;;18.08;38.78;101557.09;5098636;27;45403;-60
2021/05/31 00:44:15;;;;;;;;;9.25;7.25;;;;;18.06;38.88;101550.06;5082772;27;45386;-59
2021/05/31 00:46:41;;;;;;;;;11.25;9.75;;;;;18.01;38.96;101545.78;5082509;27;45169;-59
2021/05/31 00:49:06;;;;;;;;;6.00;6.00;;;;;18.00;39.20;101546.69;5082548;27;45277;-59
2021/05/31 00:51:32;;;;;;;;;6.75;5.50;;;;;17.98;39.24;101553.84;5082815;27;45259;-59
2021/05/31 00:53:58;;;;;;;;;6.75;6.50;;;;;17.95;39.24;101556.63;5082746;27;45348;-60
2021/05/31 00:56:26;;;;;;;;;8.50;8.50;;;;;17.91;39.30;101554.06;5082633;27;45520;-59
2021/05/31 00:58:51;;;;;;;;;8.25;4.50;;;;;17.86;39.30;101552.44;5081943;27;45492;-59
2021/05/31 01:01:16;;;;;;;;;7.00;7.00;;;;;17.84;39.65;101548.09;5081991;27;45448;-60
2021/05/31 01:03:42;;;;;;;;;5.25;5.25;;;;;17.82;39.41;101547.25;5082551;27;45337;-60
2021/05/31 01:06:11;;;;;;;;;7.25;6.25;;;;;17.79;39.68;101550.88;5082558;27;45522;-59
2021/05/31 01:08:46;;;;;;;;;8.25;7.00;;;;;17.73;39.56;101545.75;5082131;27;46408;-59
2021/05/31 01:11:14;;;;;;;;;9.75;7.25;;;;;17.74;39.85;101546.66;5078598;27;45305;-59
2021/05/31 01:13:48;;;;;;;;;10.25;6.00;;;;;17.69;39.85;101536.16;5078079;28;45251;-60
2021/05/31 01:16:24;;;;;;;;;6.25;6.25;;;;;17.64;39.65;101536.28;5082034;28;45435;-59
2021/05/31 01:18:50;;;;;;;;;6.00;6.00;;;;;17.59;39.94;101538.22;5082012;27;45349;-59
2021/05/31 01:21:29;;;;;;;;;8.50;8.50;;;;;17.55;39.85;101534.78;5080675;28;45327;-59
2021/05/31 01:24:19;;;;;;;;;5.50;5.50;;;;;17.57;39.91;101541.84;5082339;27;45222;-59
2021/05/31 01:26:53;;;;;;;;;4.50;4.50;;;;;17.53;39.87;101533.09;5081890;27;45365;-60
2021/05/31 01:29:24;;;;;;;;;9.25;7.00;;;;;17.48;40.09;101529.72;5082026;28;45386;-59
2021/05/31 01:31:57;;;;;;;;;8.00;7.75;;;;;17.45;39.98;101533.31;5081612;27;45438;-59
2021/05/31 01:34:27;;;;;;;;;10.25;9.00;;;;;17.44;40.71;101538.69;5082045;27;45410;-59
2021/05/31 01:37:05;;;;;;;;;7.75;6.00;;;;;17.41;40.49;101537.00;5081870;27;45497;-59
2021/05/31 01:39:34;;;;;;;;;7.00;7.00;;;;;17.40;40.79;101531.75;5081705;27;45268;-59
2021/05/31 01:42:00;;;;;;;;;7.75;6.75;;;;;17.35;40.45;101530.06;5081641;27;45272;-59
2021/05/31 01:44:26;;;;;;;;;8.75;8.75;;;;;17.35;41.09;101527.41;5081788;27;45255;-59
2021/05/31 01:46:52;;;;;;;;;9.50;7.50;;;;;17.33;40.70;101525.72;5081793;27;45173;-59
2021/05/31 01:49:20;;;;;;;;;6.50;6.50;;;;;17.31;40.70;101520.47;5081531;28;46100;-59
2021/05/31 01:51:47;;;;;;;;;7.00;6.75;;;;;17.29;41.12;101521.44;5081589;27;45504;-59
2021/05/31 01:54:14;;;;;;;;;7.00;6.50;;;;;17.25;40.70;101517.13;5097469;27;45377;-59
2021/05/31 01:56:43;;;;;;;;;8.75;7.00;;;;;17.23;40.77;101522.47;5081452;27;45546;-59
2021/05/31 01:59:10;;;;;;;;;7.00;7.00;;;;;17.19;41.19;101524.38;5081652;28;45390;-59
2021/05/31 02:01:36;;;;;;;;;8.25;8.25;;;;;17.16;41.29;101519.13;5081252;27;45265;-59
2021/05/31 02:04:01;;;;;;;;;9.50;7.75;;;;;17.13;41.14;101519.25;5081480;27;45475;-59
2021/05/31 02:06:27;;;;;;;;;9.75;8.75;;;;;17.09;41.45;101509.59;5081511;27;45333;-59
2021/05/31 02:08:53;;;;;;;;;6.75;6.75;;;;;17.09;41.71;101514.91;5081193;27;45273;-59
2021/05/31 02:11:43;;;;;;;;;10.25;9.50;;;;;17.05;41.20;101505.31;5080055;27;45202;-59
2021/05/31 02:14:16;;;;;;;;;10.50;9.00;;;;;17.03;41.61;101502.69;5081472;27;45337;-59
2021/05/31 02:16:53;;;;;;;;;7.75;7.75;;;;;17.01;41.42;101503.66;5081046;27;45360;-59
2021/05/31 02:19:20;;;;;;;;;8.25;8.25;;;;;16.94;41.31;101502.94;5096830;27;46509;-59
2021/05/31 02:21:47;;;;;;;;;9.50;9.50;;;;;16.95;42.07;101509.13;5080678;28;45440;-59
2021/05/31 02:24:14;;;;;;;;;6.25;6.25;;;;;16.90;41.58;101502.16;5081389;27;45201;-59
2021/05/31 02:26:40;;;;;;;;;8.50;7.00;;;;;16.90;41.79;101504.81;5080922;28;45203;-59
2021/05/31 02:29:06;;;;;;;;;9.00;7.75;;;;;16.88;42.14;101511.94;5080906;27;45357;-59
2021/05/31 02:31:32;;;;;;;;;8.25;7.50;;;;;16.85;41.95;101497.88;5080797;27;45409;-60
2021/05/31 02:33:58;;;;;;;;;9.25;8.50;;;;;16.83;41.89;101511.19;5081228;28;45314;-59
2021/05/31 02:36:24;;;;;;;;;11.75;11.00;;;;;16.80;42.00;101515.72;5080966;27;45338;-59
2021/05/31 02:38:49;;;;;;;;;8.75;8.50;;;;;16.80;42.15;101518.38;5080885;27;45972;-59
2021/05/31 02:41:15;;;;;;;;;10.75;9.00;;;;;16.75;42.47;101513.19;5080913;27;45333;-58
2021/05/31 02:43:41;;;;;;;;;10.00;10.00;;;;;16.74;42.43;101509.66;5080859;27;45381;-58
2021/05/31 02:46:07;;;;;;;;;11.00;8.25;;;;;16.72;42.08;101514.13;5080620;27;45314;-59
2021/05/31 02:48:32;;;;;;;;;9.75;9.75;;;;;16.70;42.49;101518.63;5080625;28;45429;-59
2021/05/31 02:50:58;;;;;;;;;10.50;8.75;;;;;16.68;42.61;101511.63;5096278;27;45250;-59
2021/05/31 02:53:25;;;;;;;;;10.75;9.00;;;;;16.67;42.43;101509.88;5080875;27;45543;-59
2021/05/31 02:59:46;;;;;;;;;12.00;9.75;;;;;16.62;42.50;101519.75;5080363;28;45616;-59
2021/05/31 03:02:12;;;;;;;;;9.00;9.00;;;;;16.56;42.59;101513.72;5080398;28;45231;-59
2021/05/31 03:04:37;;;;;;;;;7.00;7.00;;;;;16.56;42.85;101520.78;5080654;27;45223;-58
2021/05/31 03:07:03;;;;;;;;;6.75;4.25;;;;;16.53;43.13;101513.78;5080517;28;45206;-59
2021/05/31 03:09:28;;;;;;;;;9.00;8.75;;;;;16.51;42.80;101517.38;5080408;27;46009;-59
2021/05/31 03:11:53;;;;;;;;;8.75;8.50;;;;;16.42;42.74;101516.69;5080339;27;45385;-59
2021/05/31 03:14:19;;;;;;;;;8.25;8.25;;;;;16.42;43.11;101515.84;5096421;27;45629;-59
2021/05/31 03:16:44;;;;;;;;;8.75;8.75;;;;;16.43;42.69;101525.56;5078760;28;45612;-59
2021/05/31 03:19:10;;;;;;;;;9.00;8.00;;;;;16.42;43.10;101519.34;5080431;28;45357;-58
2021/05/31 03:21:35;;;;;;;;;10.00;9.25;;;;;16.38;42.90;101520.34;5080115;27;45306;-59
2021/05/31 03:24:00;;;;;;;;;9.25;9.25;;;;;16.33;43.22;101521.41;5080136;27;45362;-59
2021/05/31 03:26:26;;;;;;;;;10.25;8.75;;;;;16.34;42.82;101529.31;5080166;27;45352;-59
2021/05/31 03:28:51;;;;;;;;;9.75;8.00;;;;;16.31;43.13;101523.22;5080109;27;45380;-58
2021/05/31 03:31:17;;;;;;;;;13.00;11.50;;;;;16.24;43.19;101519.84;5080041;28;45333;-59
2021/05/31 03:33:42;;;;;;;;;10.25;9.00;;;;;16.25;43.73;101524.22;5080401;27;45252;-59
2021/05/31 03:36:07;;;;;;;;;9.25;9.25;;;;;16.15;43.82;101520.97;5080226;27;45453;-59
2021/05/31 03:38:33;;;;;;;;;8.25;8.25;;;;;16.18;43.65;101530.63;5080196;27;46138;-58
2021/05/31 03:40:58;;;;;;;;;11.25;9.50;;;;;16.16;43.95;101541.25;5080087;27;45235;-58
2021/05/31 03:43:23;;;;;;;;;8.50;7.50;;;;;16.11;44.10;101535.19;5080249;27;45161;-59
2021/05/31 03:45:49;;;;;;;;;10.00;8.75;;;;;16.09;43.69;101537.88;5079854;27;45413;-59
2021/05/31 03:51:36;;;;;;;;;7.25;7.25;;;;;16.08;43.55;101543.22;5080033;28;45291;-59
2021/05/31 03:54:01;;;;;;;;;15.50;13.75;;;;;16.02;44.28;101535.41;5080025;27;45680;-59
2021/05/31 03:56:27;;;;;;;;;11.50;10.00;;;;;16.05;44.28;101538.88;5080074;27;45369;-59
2021/05/31 03:58:53;;;;;;;;;8.00;8.00;;;;;15.99;44.19;101532.84;5079611;27;46190;-59
2021/05/31 04:01:19;;;;;;;;;11.50;9.75;;;;;16.04;43.89;101545.06;5079719;27;45326;-59
2021/05/31 04:03:51;;;;;;;;;8.75;7.50;;;;;16.02;43.94;101543.38;5079688;27;45275;-59
2021/05/31 04:11:46;;;;;;;;;9.50;8.75;;;;;15.92;44.16;101533.00;5079284;28;45478;-58
2021/05/31 04:14:17;;;;;;;;;9.00;9.00;;;;;15.91;44.72;101536.56;5079938;27;45256;-59
2021/05/31 04:16:50;;;;;;;;;7.75;7.00;;;;;15.93;44.17;101540.00;5079350;27;45475;-59
2021/05/31 04:19:18;;;;;;;;;8.50;8.50;;;;;15.91;44.58;101539.19;5079446;27;45218;-59
2021/05/31 04:21:46;;;;;;;;;10.25;9.00;;;;;15.89;45.10;101543.66;5079209;27;45318;-59
2021/05/31 04:24:12;;;;;;;;;8.50;8.50;;;;;15.90;45.03;101532.16;5079836;28;45360;-59
2021/05/31 04:26:38;;;;;;;;;9.00;8.00;;;;;15.88;44.70;101526.00;5079360;27;45523;-59
2021/05/31 04:29:06;;;;;;;;;14.50;10.00;;;;;15.90;44.88;101526.84;5079449;27;46268;-59
2021/05/31 04:31:32;;;;;;;;;9.00;9.00;;;;;15.91;45.01;101527.72;5094934;27;45907;-59
2021/05/31 04:33:58;;;;;;;;;8.50;8.50;;;;;15.93;45.04;101534.72;5079570;27;45485;-58
2021/05/31 04:36:24;;;;;;;;;11.75;8.75;;;;;15.90;45.10;101534.81;5098290;27;45561;-58
2021/05/31 04:38:50;;;;;;;;;7.50;7.50;;;;;15.90;44.79;101536.59;5082929;27;46311;-58
2021/05/31 04:41:15;;;;;;;;;18.00;18.00;;;;;15.89;44.91;101541.00;5082724;27;45309;-58
2021/05/31 04:43:41;;;;;;;;;10.00;10.00;;;;;15.91;45.19;101540.97;5082639;27;45308;-58
2021/05/31 04:46:06;;;;;;;;;11.50;9.00;;;;;15.89;44.86;101532.19;5082378;27;45449;-58
2021/05/31 04:48:32;;;;;;;;;14.00;13.00;;;;;15.91;44.91;101536.56;5082634;27;45481;-58
2021/05/31 04:51:01;;;;;;;;;12.50;9.75;;;;;15.93;45.11;101531.22;5082599;27;45343;-58
2021/05/31 04:53:27;;;;;;;;;13.75;10.75;;;;;15.87;44.90;101529.59;5082594;27;45243;-56
2021/05/31 04:55:56;;;;;;;;;18.75;18.75;;;;;15.88;45.17;101530.44;5082658;27;45489;-58
2021/05/31 04:58:23;;;;;;;;;23.50;22.00;;;;;15.95;44.55;101536.47;5082060;27;46133;-58
2021/05/31 05:00:50;;;;;;;;;15.00;13.50;;;;;15.97;44.94;101538.16;5082031;27;45219;-58
2021/05/31 05:03:17;;;;;;;;;11.25;10.25;;;;;15.99;45.25;101540.81;5082454;27;45413;-56
2021/05/31 05:05:43;;;;;;;;;11.25;9.00;;;;;16.00;45.22;101540.75;5082152;27;45231;-61
2021/05/31 05:08:08;;;;;;;;;12.00;9.75;;;;;15.98;45.16;101536.41;5082209;27;45450;-60
2021/05/31 05:10:33;;;;;;;;;7.75;7.00;;;;;15.95;45.42;101541.75;5082060;27;45360;-59
2021/05/31 05:12:59;;;;;;;;;8.75;7.00;;;;;15.95;45.50;101540.00;5082374;27;45362;-59
2021/05/31 05:15:25;;;;;;;;;9.00;9.00;;;;;15.98;44.81;101539.06;5075836;27;45907;-61
2021/05/31 05:17:52;;;;;;;;;10.75;9.00;;;;;16.03;45.15;101539.81;5063320;28;46433;-59
2021/05/31 05:20:20;;;;;;;;;11.25;10.25;;;;;16.07;45.16;101536.16;5070814;28;45380;-59
2021/05/31 05:22:45;;;;;;;;;10.25;9.50;;;;;16.11;44.90;101536.97;5075001;28;45234;-59
2021/05/31 05:25:12;;;;;;;;;10.50;9.75;;;;;16.16;44.91;101537.72;5061561;28;45376;-62
2021/05/31 05:27:38;;;;;;;;;8.75;8.00;;;;;16.17;44.46;101528.88;5074810;28;45236;-58
2021/05/31 05:30:06;;;;;;;;;9.25;7.25;;;;;16.27;44.39;101529.50;5070108;28;46055;-50
2021/05/31 05:32:32;;;;;;;;;10.00;10.00;;;;;16.32;44.25;101527.59;5061730;28;45315;-58
2021/05/31 05:35:06;;;;;;;;;10.00;10.00;;;;;16.39;44.20;101540.66;5062105;28;45477;-61
2021/05/31 05:37:33;;;;;;;;;7.25;6.50;;;;;16.45;43.96;101533.47;5074471;28;45368;-60
2021/05/31 05:45:36;;;;;;;;;13.00;11.00;;;;;16.58;43.84;101540.19;5069014;28;45461;-58
2021/05/31 05:48:01;;;;;;;;;9.25;9.25;;;;;16.63;43.79;101535.63;5060362;27;46985;-59
2021/05/31 05:50:27;;;;;;;;;8.25;8.25;;;;;16.66;43.53;101538.19;5061170;28;45315;-58
2021/05/31 05:52:53;;;;;;;;;9.00;8.00;;;;;16.71;42.84;101546.03;5067626;28;45312;-56
2021/05/31 05:55:18;;;;;;;;;11.50;10.25;;;;;16.73;42.89;101534.47;5068404;27;45466;-59
2021/05/31 05:57:44;;;;;;;;;9.75;9.75;;;;;16.79;43.18;101535.19;5067424;27;46156;-56
2021/05/31 06:00:14;;;;;;;;;9.00;8.75;;;;;16.83;42.78;101537.75;5067853;28;45477;-55
2021/05/31 06:02:40;;;;;;;;;10.00;6.50;;;;;16.88;42.81;101538.47;5061415;28;45359;-58
2021/05/31 06:05:07;;;;;;;;;8.00;7.50;;;;;16.96;42.95;101537.44;5061593;28;45476;-56
2021/05/31 06:07:34;;;;;;;;;8.75;7.50;;;;;17.02;42.16;101537.25;5068331;28;45396;-54
2021/05/31 06:10:00;;;;;;;;;8.75;7.50;;;;;17.05;42.46;101523.88;5074658;27;45265;-60
2021/05/31 06:12:26;;;;;;;;;8.25;8.25;;;;;17.10;41.85;101529.06;5068285;28;45418;-62
2021/05/31 06:14:52;;;;;;;;;8.25;8.25;;;;;17.11;41.91;101515.75;5067306;28;45402;-67
2021/05/31 06:17:17;;;;;;;;;6.75;6.75;;;;;17.22;41.90;101523.41;5078703;28;46453;-61
2021/05/31 06:19:42;;;;;;;;;10.00;8.00;;;;;17.26;42.04;101521.50;5074162;28;45164;-64
2021/05/31 06:22:08;;;;;;;;;8.00;8.00;;;;;17.30;41.80;101521.38;5087270;27;45480;-64
2021/05/31 06:24:33;;;;;;;;;7.50;7.50;;;;;17.38;41.75;101523.78;5049966;28;45386;-64
2021/05/31 06:27:00;;;;;;;;;9.00;8.00;;;;;17.45;41.57;101527.16;5079899;28;45308;-64
2021/05/31 06:29:27;;;;;;;;;8.00;8.00;;;;;17.48;41.21;101532.38;5080827;28;45279;-64
2021/05/31 06:31:52;;;;;;;;;8.50;7.50;;;;;17.56;41.08;101533.00;5086160;27;45354;-64
2021/05/31 06:34:18;;;;;;;;;8.00;8.00;;;;;17.60;40.59;101534.66;5066498;28;45333;-64
2021/05/31 06:36:45;;;;;;;;;9.50;9.50;;;;;17.61;40.35;101530.19;5060600;28;45240;-64
2021/05/31 06:39:11;;;;;;;;;11.00;9.25;;;;;17.68;40.25;101529.97;5042802;28;45351;-63
2021/05/31 06:41:38;;;;;;;;;9.50;8.50;;;;;17.77;40.17;101531.44;5059101;28;45315;-63
2021/05/31 06:44:05;;;;;;;;;10.50;9.00;;;;;17.84;40.63;101527.69;5076224;28;45340;-64
2021/05/31 06:46:31;;;;;;;;;8.25;8.25;;;;;17.86;39.97;101517.88;5058719;28;47770;-64
2021/05/31 06:48:56;;;;;;;;;9.00;6.75;;;;;17.99;39.84;101526.34;5072511;28;45430;-64
2021/05/31 06:51:22;;;;;;;;;8.00;7.00;;;;;18.05;40.02;101527.94;5076087;27;45328;-64
2021/05/31 06:53:47;;;;;;;;;8.50;5.75;;;;;18.10;38.91;101523.34;5073071;28;45442;-64
2021/05/31 06:56:13;;;;;;;;;7.25;6.00;;;;;18.15;39.13;101526.72;5080487;27;46098;-64
2021/05/31 06:58:38;;;;;;;;;8.00;8.00;;;;;18.21;38.79;101524.75;5079747;27;45461;-64
2021/05/31 07:01:06;;;;;;;;;9.25;6.25;;;;;18.26;38.20;101514.84;5080338;27;45567;-64
2021/05/31 07:03:32;;;;;;;;;5.50;5.50;;;;;18.30;38.42;101514.69;5080507;27;45264;-64
2021/05/31 07:05:57;;;;;;;;;9.50;7.50;;;;;18.39;38.05;101513.50;5080083;28;45383;-66
2021/05/31 07:08:25;;;;;;;;;7.50;7.25;;;;;18.44;37.59;101506.22;5096021;27;45226;-64
2021/05/31 07:10:51;;;;;;;;;7.75;7.75;;;;;18.50;37.30;101507.78;5082433;27;45453;-64
2021/05/31 07:13:20;;;;;;;;;7.50;5.25;;;;;18.49;36.96;101498.09;5078238;27;45460;-65
2021/05/31 07:15:47;;;;;;;;;6.25;6.25;;;;;18.61;36.78;101502.09;5074578;28;45334;-64
2021/05/31 07:18:13;;;;;;;;;6.25;5.50;;;;;18.70;36.50;101507.06;5075588;27;45421;-64
2021/05/31 07:20:39;;;;;;;;;6.75;6.25;;;;;18.73;36.35;101506.97;5079016;27;45370;-64
2021/05/31 07:23:05;;;;;;;;;6.00;6.00;;;;;18.79;36.25;101495.22;5061690;28;45362;-64
2021/05/31 07:25:30;;;;;;;;;7.25;7.25;;;;;18.88;35.86;101499.34;5078689;28;48335;-64
2021/05/31 07:27:57;;;;;;;;;6.75;5.50;;;;;18.95;35.94;101507.06;5079643;27;46545;-65
2021/05/31 07:30:23;;;;;;;;;7.00;7.00;;;;;19.03;35.94;101506.81;5058984;28;45364;-64
2021/05/31 07:32:49;;;;;;;;;4.25;4.25;;;;;19.04;35.88;101489.03;5075320;28;45221;-64
2021/05/31 07:35:15;;;;;;;;;7.00;6.50;;;;;19.17;35.83;101500.97;5059519;28;46236;-64
2021/05/31 07:37:41;;;;;;;;;7.00;6.75;;;;;19.26;35.93;101500.59;5075156;28;45618;-64
2021/05/31 07:40:10;;;;;;;;;10.00;9.25;;;;;19.36;36.17;101497.56;5075117;28;45394;-64
2021/05/31 07:42:35;;;;;;;;;10.75;10.50;;;;;19.43;35.92;101507.94;5075003;28;45366;-64
2021/05/31 07:45:01;;;;;;;;;7.75;5.50;;;;;19.49;35.42;101506.81;5059228;28;45692;-65
2021/05/31 07:47:26;;;;;;;;;5.75;5.75;;;;;19.59;35.32;101499.31;5075109;28;45310;-65
2021/05/31 07:49:52;;;;;;;;;7.75;7.75;;;;;19.67;35.23;101493.69;5059773;28;45387;-66
2021/05/31 07:52:20;;;;;;;;;8.00;6.75;;;;;19.75;34.88;101491.59;5059491;28;45256;-65
2021/05/31 07:54:47;;;;;;;;;7.00;4.00;;;;;19.83;34.47;101485.97;5066603;28;46187;-66
2021/05/31 07:57:12;;;;;;;;;7.50;6.50;;;;;19.88;34.38;101495.50;5079516;27;45239;-66
2021/05/31 07:59:38;;;;;;;;;5.50;5.50;;;;;19.95;34.34;101482.78;5079751;27;45277;-66
2021/05/31 08:02:03;;;;;;;;;5.75;5.00;;;;;19.97;34.07;101481.78;5079575;27;45330;-65
2021/05/31 08:04:29;;;;;;;;;7.25;5.25;;;;;20.02;34.15;101475.38;5079708;28;45425;-65
2021/05/31 08:06:56;;;;;;;;;11.50;8.00;;;;;20.12;33.87;101490.06;5079583;28;45305;-66
2021/05/31 08:09:22;;;;;;;;;9.25;8.00;;;;;20.16;33.64;101490.81;5075282;28;45470;-66
2021/05/31 08:11:47;;;;;;;;;8.00;6.00;;;;;20.18;33.22;101484.47;5076202;28;45474;-66
2021/05/31 08:14:13;;;;;;;;;7.75;6.25;;;;;20.23;33.12;101486.94;5083188;27;46833;-66
2021/05/31 08:16:38;;;;;;;;;9.50;9.00;;;;;20.33;32.82;101482.09;5082884;27;45353;-66
2021/05/31 08:19:03;;;;;;;;;5.00;5.00;;;;;20.37;32.63;101484.53;5081964;28;45192;-65
2021/05/31 08:21:29;;;;;;;;;6.00;6.00;;;;;20.44;32.76;101482.50;5081687;28;45973;-65
2021/05/31 08:23:55;;;;;;;;;4.25;4.25;;;;;20.48;32.82;101476.06;5098479;27;45335;-66
2021/05/31 08:26:20;;;;;;;;;9.50;7.25;;;;;20.50;32.51;101468.00;5083143;27;45235;-66
2021/05/31 08:28:47;;;;;;;;;9.00;7.00;;;;;20.63;32.08;101472.72;5082896;28;45228;-66
2021/05/31 08:31:14;;;;;;;;;5.00;5.00;;;;;20.71;32.49;101469.72;5082766;28;45149;-65
2021/05/31 08:33:39;;;;;;;;;6.25;6.25;;;;;20.72;31.82;101466.13;5098502;27;46886;-65
2021/05/31 08:36:06;;;;;;;;;7.00;5.25;;;;;20.71;31.42;101451.03;5081488;27;45389;-66
2021/05/31 08:38:32;;;;;;;;;6.00;6.00;;;;;20.84;31.40;101461.16;5083013;27;45376;-66
2021/05/31 08:40:58;;;;;;;;;9.25;6.00;;;;;20.91;31.33;101462.59;5082798;27;45496;-66
2021/05/31 08:43:23;;;;;;;;;7.75;7.00;;;;;20.95;31.18;101461.53;5082349;27;45319;-66
2021/05/31 08:45:49;;;;;;;;;4.75;4.75;;;;;21.00;31.27;101456.81;5082378;27;45282;-66
2021/05/31 08:48:16;;;;;;;;;6.50;5.25;;;;;20.96;30.93;101455.25;5082735;27;45400;-65
2021/05/31 08:50:42;;;;;;;;;6.00;5.00;;;;;20.96;30.23;101447.22;5082689;27;45188;-66
2021/05/31 08:53:08;;;;;;;;;5.50;5.00;;;;;20.97;29.79;101450.75;5082355;27;45313;-65
2021/05/31 08:55:34;;;;;;;;;5.00;5.00;;;;;21.03;30.11;101448.69;5082460;27;45317;-65
2021/05/31 08:58:02;;;;;;;;;5.00;5.00;;;;;21.09;29.52;101448.41;5082536;28;45458;-65
2021/05/31 09:00:30;;;;;;;;;4.50;4.50;;;;;21.13;29.30;101457.13;5082191;28;45275;-65
2021/05/31 09:02:59;;;;;;;;;6.75;5.00;;;;;21.15;29.78;101457.91;5082150;27;45326;-65
2021/05/31 09:05:28;;;;;;;;;5.50;5.00;;;;;21.20;29.42;101452.38;5081044;28;45536;-65
2021/05/31 09:07:54;;;;;;;;;6.00;5.75;;;;;21.25;29.36;101455.69;5082414;27;45310;-66
2021/05/31 09:10:21;;;;;;;;;5.75;4.75;;;;;21.33;29.71;101442.78;5082111;27;45254;-65
2021/05/31 09:12:47;;;;;;;;;5.50;4.75;;;;;21.42;29.82;101434.34;5082015;27;46220;-65
2021/05/31 09:15:14;;;;;;;;;4.75;4.75;;;;;21.48;30.06;101440.31;5097826;27;45324;-66
2021/05/31 09:17:40;;;;;;;;;6.50;6.50;;;;;21.53;29.70;101438.28;5082275;27;45321;-65
2021/05/31 09:20:07;;;;;;;;;10.25;6.00;;;;;21.64;28.86;101438.66;5081427;27;45425;-65
2021/05/31 09:22:44;;;;;;;;;5.25;5.25;;;;;21.69;28.93;101444.63;5081964;27;47869;-65
2021/05/31 09:25:10;;;;;;;;;4.75;4.00;;;;;21.75;28.45;101432.78;5081851;27;45228;-65
2021/05/31 09:27:35;;;;;;;;;5.00;5.00;;;;;21.83;28.91;101435.06;5081865;27;45176;-65
2021/05/31 09:30:05;;;;;;;;;7.25;6.25;;;;;21.87;28.25;101424.13;5081635;27;45243;-66
2021/05/31 09:32:31;;;;;;;;;7.00;6.00;;;;;21.96;28.88;101428.16;5081768;27;45305;-65
2021/05/31 09:35:08;;;;;;;;;6.00;6.00;;;;;22.02;29.28;101430.47;5081645;27;45359;-65
2021/05/31 09:37:47;;;;;;;;;5.75;5.75;;;;;22.13;29.25;101432.63;5082053;27;45480;-65
2021/05/31 09:40:19;;;;;;;;;7.25;5.00;;;;;22.24;29.16;101434.75;5081697;28;45448;-65
2021/05/31 09:42:52;;;;;;;;;8.50;8.50;;;;;22.33;28.52;101436.06;5081605;27;45349;-66
2021/05/31 09:45:18;;;;;;;;;6.50;4.75;;;;;22.37;28.52;101435.00;5081806;27;45560;-66
2021/05/31 09:47:44;;;;;;;;;4.00;3.50;;;;;22.44;28.45;101431.03;5081815;27;45216;-65
2021/05/31 09:50:11;;;;;;;;;5.25;5.25;;;;;22.47;28.38;101432.69;5080318;28;45522;-66
2021/05/31 09:52:38;;;;;;;;;5.25;5.25;;;;;22.52;28.57;101425.28;5081378;27;45944;-65
2021/05/31 09:55:06;;;;;;;;;5.75;5.75;;;;;22.56;28.59;101426.84;5081781;28;45266;-66
2021/05/31 09:57:36;;;;;;;;;5.00;5.00;;;;;22.69;28.41;101418.97;5081355;27;45316;-66
2021/05/31 10:00:12;;;;;;;;;6.00;6.00;;;;;22.83;27.95;101424.47;5081375;27;45231;-66
2021/05/31 10:06:00;;;;;;;;;5.25;3.25;;;;;23.08;27.65;101431.16;5081379;28;45398;-66
2021/05/31 10:10:38;;;;;;;;;5.00;5.00;;;;;23.27;27.05;101431.00;5081091;28;45318;-67
2021/05/31 10:13:04;;;;;;;;;5.00;5.00;;;;;23.39;26.99;101431.25;5080951;27;46688;-68
2021/05/31 10:15:32;;;;;;;;;6.00;4.00;;;;;23.44;27.26;101438.06;5080928;27;45397;-67
2021/05/31 10:17:59;;;;;;;;;6.00;6.00;;;;;23.52;26.59;101433.13;5081370;27;45296;-67
2021/05/31 10:20:27;;;;;;;;;6.75;5.75;;;;;23.65;26.83;101437.78;5080824;27;45310;-67
2021/05/31 10:22:53;;;;;;;;;6.25;5.25;;;;;23.81;27.37;101425.19;5080970;27;47207;-67
2021/05/31 10:25:20;;;;;;;;;4.75;4.75;;;;;23.90;26.37;101423.78;5080966;28;45278;-66
2021/05/31 10:27:51;;;;;;;;;7.75;5.50;;;;;24.00;26.17;101422.31;5080969;27;45306;-67
2021/05/31 10:30:19;;;;;;;;;6.50;6.50;;;;;24.24;26.21;101413.72;5080627;27;45274;-66
2021/05/31 10:32:44;;;;;;;;;5.00;5.00;;;;;24.67;25.65;101415.56;5064938;27;45621;-66
2021/05/31 10:35:15;;;;;;;;;4.00;4.00;;;;;25.89;25.94;101410.31;5063671;28;45437;-65
2021/05/31 10:37:41;;;;;;;;;7.25;6.25;;;;;29.84;24.68;101428.94;5072196;27;45345;-63
2021/05/31 10:40:12;;;;;;;;;5.75;5.75;;;;;34.40;21.31;101427.69;5069138;28;45512;-63
2021/05/31 10:42:41;;;;;;;;;5.75;5.00;;;;;38.49;18.29;101424.09;5065823;28;45262;-64
2021/05/31 10:45:15;;;;;;;;;5.25;4.00;;;;;41.85;15.70;101421.69;5073368;28;45268;-64
2021/05/31 10:47:41;;;;;;;;;4.00;4.00;;;;;44.62;13.93;101425.19;5071797;28;45423;-63
2021/05/31 10:50:15;;;;;;;;;5.00;5.00;;;;;46.94;12.05;101424.34;5062500;27;45465;-64
2021/05/31 10:52:50;;;;;;;;;7.00;4.50;;;;;48.93;10.57;101421.13;5073534;28;46124;-63
2021/05/31 10:55:16;;;;;;;;;8.25;7.00;;;;;51.09;9.28;101421.50;5072432;28;45344;-64
2021/05/31 10:57:41;;;;;;;;;4.00;4.00;;;;;54.05;7.39;101428.00;5066794;27;45481;-66
2021/05/31 11:00:07;;;;;;;;;5.75;5.25;;;;;56.49;6.54;101420.66;5066528;28;45528;-68
2021/05/31 11:02:33;;;;;;;;;6.75;5.75;;;;;58.80;5.15;101414.47;5066759;27;45380;-71
2021/05/31 11:05:07;;;;;;;;;4.00;4.00;;;;;61.01;4.16;101399.50;5073058;28;45472;-71
2021/05/31 11:07:32;;;;;;;;;3.50;3.50;;;;;62.09;3.38;101416.44;5074220;27;45515;-68
2021/05/31 11:09:58;;;;;;;;;3.50;3.50;;;;;62.93;2.93;101403.41;5075969;28;45381;-69
2021/05/31 11:12:31;;;;;;;;;4.00;4.00;;;;;63.60;2.37;101422.66;5078935;27;46493;-66
2021/05/31 11:15:08;;;;;;;;;4.25;4.25;;;;;64.69;2.61;101413.59;5080028;27;45487;-66
2021/05/31 11:17:46;;;;;;;;;4.75;4.75;;;;;65.50;0.96;101403.19;5078503;28;45487;-67
2021/05/31 11:20:13;;;;;;;;;3.00;3.00;;;;;66.30;1.49;101403.09;5080150;27;45409;-67
2021/05/31 11:22:38;;;;;;;;;3.50;3.50;;;;;66.54;0.58;101390.25;5078939;27;46351;-67
2021/05/31 11:25:10;;;;;;;;;3.75;3.75;;;;;66.80;0.00;101388.44;5077842;28;45370;-65
2021/05/31 11:27:41;;;;;;;;;5.00;3.50;;;;;66.45;0.00;101380.34;5079131;27;45401;-67
2021/05/31 11:30:10;;;;;;;;;3.75;3.75;;;;;62.14;0.47;101364.22;5078762;28;45485;-63
2021/05/31 11:32:36;;;;;;;;;4.00;4.00;;;;;56.96;2.45;101332.88;5079750;28;45347;-66
2021/05/31 11:35:05;;;;;;;;;3.00;3.00;;;;;52.37;4.03;101331.84;5079689;27;45366;-64
2021/05/31 11:37:33;;;;;;;;;4.50;4.50;;;;;48.94;4.94;101314.09;5078739;28;45358;-66
2021/05/31 11:40:00;;;;;;;;;4.50;4.50;;;;;46.32;6.40;101312.00;5079236;28;45358;-64
2021/05/31 11:42:27;;;;;;;;;3.00;3.00;;;;;43.96;6.66;101303.09;5079684;27;45648;-67
2021/05/31 11:44:55;;;;;;;;;3.75;3.75;;;;;42.19;7.91;101311.19;5082067;27;45301;-68
2021/05/31 11:47:26;;;;;;;;;5.00;4.00;;;;;40.48;8.65;101308.91;5099137;27;45334;-68